Terminal Aerodrome Forecast
Issued by NWS San Angelo, TX

Home | Current Version | Previous Version | Text Only | Print | Product List | Glossary On
Versions: 1 2 3 4 5 6 7 8 9 10 11 12 13 14
000
FTUS44 KSJT 111400 AAA
TAFABI
TAF AMD
KABI 111409Z 1114/1212 19012KT P6SM SCT040
     FM111500 19015G23KT P6SM SCT040
     FM112000 17015G22KT P6SM SCT070 SCT120
     FM120100 16010KT P6SM FEW200=

USA.gov is the U.S. government's official web portal to all federal, state and local government web resources and services.